sensor_id;sensor_type;location;lat;lon;timestamp;temperature;humidity
25991;DHT22;13779;-33.886;151.198;2023-08-17T00:01:34;14.30;99.90
25991;DHT22;13779;-33.886;151.198;2023-08-17T00:04:05;14.40;99.90
25991;DHT22;13779;-33.886;151.198;2023-08-17T00:06:36;14.50;99.90
25991;DHT22;13779;-33.886;151.198;2023-08-17T00:09:07;14.60;99.90
25991;DHT22;13779;-33.886;151.198;2023-08-17T00:11:38;14.60;99.90
25991;DHT22;13779;-33.886;151.198;2023-08-17T00:14:08;14.70;99.90
25991;DHT22;13779;-33.886;151.198;2023-08-17T00:16:40;14.80;99.90
25991;DHT22;13779;-33.886;151.198;2023-08-17T00:19:10;14.90;99.90
25991;DHT22;13779;-33.886;151.198;2023-08-17T00:21:41;14.90;99.90
25991;DHT22;13779;-33.886;151.198;2023-08-17T00:24:12;15.00;99.90
25991;DHT22;13779;-33.886;151.198;2023-08-17T00:26:42;15.10;99.90
25991;DHT22;13779;-33.886;151.198;2023-08-17T00:29:13;15.20;99.90
25991;DHT22;13779;-33.886;151.198;2023-08-17T00:31:44;15.30;99.90
25991;DHT22;13779;-33.886;151.198;2023-08-17T00:34:15;15.40;99.90
25991;DHT22;13779;-33.886;151.198;2023-08-17T00:36:46;15.40;99.90
25991;DHT22;13779;-33.886;151.198;2023-08-17T00:39:16;15.50;99.90
25991;DHT22;13779;-33.886;151.198;2023-08-17T00:41:47;15.50;99.90
25991;DHT22;13779;-33.886;151.198;2023-08-17T00:44:17;15.60;99.90
25991;DHT22;13779;-33.886;151.198;2023-08-17T00:46:48;15.70;99.90
25991;DHT22;13779;-33.886;151.198;2023-08-17T00:49:19;15.80;99.90
25991;DHT22;13779;-33.886;151.198;2023-08-17T00:51:49;15.80;99.90
25991;DHT22;13779;-33.886;151.198;2023-08-17T00:54:25;15.90;99.90
25991;DHT22;13779;-33.886;151.198;2023-08-17T00:56:56;16.00;99.90
25991;DHT22;13779;-33.886;151.198;2023-08-17T00:59:26;16.10;99.90
25991;DHT22;13779;-33.886;151.198;2023-08-17T01:02:03;16.20;99.90
25991;DHT22;13779;-33.886;151.198;2023-08-17T01:04:34;16.20;99.90
25991;DHT22;13779;-33.886;151.198;2023-08-17T01:07:05;16.30;99.90
25991;DHT22;13779;-33.886;151.198;2023-08-17T01:09:36;16.40;99.90
25991;DHT22;13779;-33.886;151.198;2023-08-17T01:15:14;16.60;99.90
25991;DHT22;13779;-33.886;151.198;2023-08-17T01:18:00;16.60;99.90
25991;DHT22;13779;-33.886;151.198;2023-08-17T01:20:35;16.70;99.90
25991;DHT22;13779;-33.886;151.198;2023-08-17T01:23:05;16.70;99.90
25991;DHT22;13779;-33.886;151.198;2023-08-17T01:25:36;16.80;99.90
25991;DHT22;13779;-33.886;151.198;2023-08-17T01:28:07;16.90;99.90
25991;DHT22;13779;-33.886;151.198;2023-08-17T01:33:40;16.90;99.90
25991;DHT22;13779;-33.886;151.198;2023-08-17T01:38:52;16.90;99.90
25991;DHT22;13779;-33.886;151.198;2023-08-17T01:41:26;17.00;99.90
25991;DHT22;13779;-33.886;151.198;2023-08-17T01:43:57;17.00;99.90
25991;DHT22;13779;-33.886;151.198;2023-08-17T01:46:33;17.10;99.90
25991;DHT22;13779;-33.886;151.198;2023-08-17T01:49:03;17.10;99.90
25991;DHT22;13779;-33.886;151.198;2023-08-17T01:51:34;17.10;99.90
25991;DHT22;13779;-33.886;151.198;2023-08-17T01:54:05;17.20;99.90
25991;DHT22;13779;-33.886;151.198;2023-08-17T01:56:38;17.20;99.90
25991;DHT22;13779;-33.886;151.198;2023-08-17T01:59:09;17.20;99.90
25991;DHT22;13779;-33.886;151.198;2023-08-17T02:01:39;17.30;99.90
25991;DHT22;13779;-33.886;151.198;2023-08-17T02:04:10;17.20;99.90
25991;DHT22;13779;-33.886;151.198;2023-08-17T02:06:40;17.30;99.90
25991;DHT22;13779;-33.886;151.198;2023-08-17T02:09:11;17.30;99.90
25991;DHT22;13779;-33.886;151.198;2023-08-17T02:11:42;17.30;99.90
25991;DHT22;13779;-33.886;151.198;2023-08-17T02:14:12;17.30;99.90
25991;DHT22;13779;-33.886;151.198;2023-08-17T02:16:43;17.30;99.90
25991;DHT22;13779;-33.886;151.198;2023-08-17T02:19:13;17.40;99.90
25991;DHT22;13779;-33.886;151.198;2023-08-17T02:21:44;17.50;99.90
25991;DHT22;13779;-33.886;151.198;2023-08-17T02:24:15;17.50;99.90
25991;DHT22;13779;-33.886;151.198;2023-08-17T02:26:45;17.50;99.90
25991;DHT22;13779;-33.886;151.198;2023-08-17T02:29:16;17.70;99.90
25991;DHT22;13779;-33.886;151.198;2023-08-17T02:31:46;17.80;99.90
25991;DHT22;13779;-33.886;151.198;2023-08-17T02:34:17;17.80;99.90
25991;DHT22;13779;-33.886;151.198;2023-08-17T02:36:47;17.80;99.90
25991;DHT22;13779;-33.886;151.198;2023-08-17T02:39:18;18.00;99.90
25991;DHT22;13779;-33.886;151.198;2023-08-17T02:41:48;18.00;99.90
25991;DHT22;13779;-33.886;151.198;2023-08-17T02:44:19;18.10;99.90
25991;DHT22;13779;-33.886;151.198;2023-08-17T02:46:50;18.20;99.90
25991;DHT22;13779;-33.886;151.198;2023-08-17T02:49:21;18.30;99.90
25991;DHT22;13779;-33.886;151.198;2023-08-17T02:51:51;18.40;99.90
25991;DHT22;13779;-33.886;151.198;2023-08-17T02:54:22;18.50;99.90
25991;DHT22;13779;-33.886;151.198;2023-08-17T02:56:52;18.60;99.90
25991;DHT22;13779;-33.886;151.198;2023-08-17T02:59:23;18.60;99.90
25991;DHT22;13779;-33.886;151.198;2023-08-17T03:01:54;18.70;99.90
25991;DHT22;13779;-33.886;151.198;2023-08-17T03:04:25;18.80;99.90
25991;DHT22;13779;-33.886;151.198;2023-08-17T03:06:56;19.10;99.90
25991;DHT22;13779;-33.886;151.198;2023-08-17T03:09:26;19.20;99.90
25991;DHT22;13779;-33.886;151.198;2023-08-17T03:11:57;19.30;99.90
25991;DHT22;13779;-33.886;151.198;2023-08-17T03:14:27;19.40;99.90
25991;DHT22;13779;-33.886;151.198;2023-08-17T03:16:58;19.50;99.90
25991;DHT22;13779;-33.886;151.198;2023-08-17T03:19:29;19.70;99.90
25991;DHT22;13779;-33.886;151.198;2023-08-17T03:21:59;20.00;99.90
25991;DHT22;13779;-33.886;151.198;2023-08-17T03:24:30;20.20;99.80
25991;DHT22;13779;-33.886;151.198;2023-08-17T03:27:01;20.50;99.50
25991;DHT22;13779;-33.886;151.198;2023-08-17T03:29:32;20.50;98.40
25991;DHT22;13779;-33.886;151.198;2023-08-17T03:32:02;20.50;97.90
25991;DHT22;13779;-33.886;151.198;2023-08-17T03:34:33;20.20;97.90
25991;DHT22;13779;-33.886;151.198;2023-08-17T03:37:04;20.00;98.20
25991;DHT22;13779;-33.886;151.198;2023-08-17T03:39:35;19.70;98.10
25991;DHT22;13779;-33.886;151.198;2023-08-17T03:42:06;19.60;98.50
25991;DHT22;13779;-33.886;151.198;2023-08-17T03:44:36;19.70;99.00
25991;DHT22;13779;-33.886;151.198;2023-08-17T03:47:07;20.00;98.00
25991;DHT22;13779;-33.886;151.198;2023-08-17T03:49:37;20.20;96.90
25991;DHT22;13779;-33.886;151.198;2023-08-17T03:52:08;20.50;96.40
25991;DHT22;13779;-33.886;151.198;2023-08-17T03:54:39;20.90;97.20
25991;DHT22;13779;-33.886;151.198;2023-08-17T03:57:09;21.20;95.50
25991;DHT22;13779;-33.886;151.198;2023-08-17T03:59:40;21.50;96.50
25991;DHT22;13779;-33.886;151.198;2023-08-17T04:02:11;21.70;95.40
25991;DHT22;13779;-33.886;151.198;2023-08-17T04:04:41;21.90;95.20
25991;DHT22;13779;-33.886;151.198;2023-08-17T04:07:14;22.30;88.20
25991;DHT22;13779;-33.886;151.198;2023-08-17T04:09:50;22.30;80.10
25991;DHT22;13779;-33.886;151.198;2023-08-17T04:12:21;22.20;76.60
25991;DHT22;13779;-33.886;151.198;2023-08-17T04:14:51;22.30;75.20
25991;DHT22;13779;-33.886;151.198;2023-08-17T04:17:22;22.30;75.30
25991;DHT22;13779;-33.886;151.198;2023-08-17T04:19:53;22.30;72.70
25991;DHT22;13779;-33.886;151.198;2023-08-17T04:22:23;22.20;77.90
25991;DHT22;13779;-33.886;151.198;2023-08-17T04:24:55;21.80;87.60
25991;DHT22;13779;-33.886;151.198;2023-08-17T04:27:25;21.70;91.40
25991;DHT22;13779;-33.886;151.198;2023-08-17T04:29:56;21.60;92.50
25991;DHT22;13779;-33.886;151.198;2023-08-17T04:32:27;21.50;93.70
25991;DHT22;13779;-33.886;151.198;2023-08-17T04:34:58;21.50;94.00
25991;DHT22;13779;-33.886;151.198;2023-08-17T04:37:28;21.50;93.50
25991;DHT22;13779;-33.886;151.198;2023-08-17T04:39:59;21.50;94.10
25991;DHT22;13779;-33.886;151.198;2023-08-17T04:42:30;21.50;95.10
25991;DHT22;13779;-33.886;151.198;2023-08-17T04:45:00;21.60;94.70
25991;DHT22;13779;-33.886;151.198;2023-08-17T04:47:31;21.40;94.00
25991;DHT22;13779;-33.886;151.198;2023-08-17T04:50:01;21.30;94.60
25991;DHT22;13779;-33.886;151.198;2023-08-17T04:52:32;21.20;95.60
25991;DHT22;13779;-33.886;151.198;2023-08-17T04:55:02;21.00;95.80
25991;DHT22;13779;-33.886;151.198;2023-08-17T04:57:33;20.90;95.60
25991;DHT22;13779;-33.886;151.198;2023-08-17T05:00:03;20.80;96.40
25991;DHT22;13779;-33.886;151.198;2023-08-17T05:02:38;20.80;96.50
25991;DHT22;13779;-33.886;151.198;2023-08-17T05:05:10;20.70;95.30
25991;DHT22;13779;-33.886;151.198;2023-08-17T05:07:40;20.50;95.90
25991;DHT22;13779;-33.886;151.198;2023-08-17T05:10:10;20.40;95.70
25991;DHT22;13779;-33.886;151.198;2023-08-17T05:12:40;20.40;96.70
25991;DHT22;13779;-33.886;151.198;2023-08-17T05:15:11;20.40;96.80
25991;DHT22;13779;-33.886;151.198;2023-08-17T05:17:41;20.20;95.70
25991;DHT22;13779;-33.886;151.198;2023-08-17T05:20:11;20.10;96.10
25991;DHT22;13779;-33.886;151.198;2023-08-17T05:22:44;20.10;96.90
25991;DHT22;13779;-33.886;151.198;2023-08-17T05:25:15;20.20;96.70
25991;DHT22;13779;-33.886;151.198;2023-08-17T05:27:45;20.00;96.80
25991;DHT22;13779;-33.886;151.198;2023-08-17T05:30:16;19.70;97.10
25991;DHT22;13779;-33.886;151.198;2023-08-17T05:32:47;19.40;98.10
25991;DHT22;13779;-33.886;151.198;2023-08-17T05:35:17;19.10;98.60
25991;DHT22;13779;-33.886;151.198;2023-08-17T05:37:47;18.80;99.30
25991;DHT22;13779;-33.886;151.198;2023-08-17T05:40:17;18.70;99.90
25991;DHT22;13779;-33.886;151.198;2023-08-17T05:42:48;18.50;99.90
25991;DHT22;13779;-33.886;151.198;2023-08-17T05:45:18;18.40;99.90
25991;DHT22;13779;-33.886;151.198;2023-08-17T05:47:48;18.30;99.90
25991;DHT22;13779;-33.886;151.198;2023-08-17T05:50:18;18.10;99.90
25991;DHT22;13779;-33.886;151.198;2023-08-17T05:52:49;18.00;99.90
25991;DHT22;13779;-33.886;151.198;2023-08-17T05:55:20;18.00;99.90
25991;DHT22;13779;-33.886;151.198;2023-08-17T05:57:50;17.90;99.90
25991;DHT22;13779;-33.886;151.198;2023-08-17T06:00:20;17.80;99.90
25991;DHT22;13779;-33.886;151.198;2023-08-17T06:02:50;17.80;99.90
25991;DHT22;13779;-33.886;151.198;2023-08-17T06:05:23;17.80;99.90
25991;DHT22;13779;-33.886;151.198;2023-08-17T06:07:56;17.80;99.90
25991;DHT22;13779;-33.886;151.198;2023-08-17T06:10:26;17.80;99.90
25991;DHT22;13779;-33.886;151.198;2023-08-17T06:12:57;17.70;99.90
25991;DHT22;13779;-33.886;151.198;2023-08-17T06:15:27;17.70;99.90
25991;DHT22;13779;-33.886;151.198;2023-08-17T06:17:57;17.70;99.90
25991;DHT22;13779;-33.886;151.198;2023-08-17T06:20:27;17.60;99.90
25991;DHT22;13779;-33.886;151.198;2023-08-17T06:22:57;17.60;99.90
25991;DHT22;13779;-33.886;151.198;2023-08-17T06:25:28;17.60;99.90
25991;DHT22;13779;-33.886;151.198;2023-08-17T06:27:58;17.50;99.90
25991;DHT22;13779;-33.886;151.198;2023-08-17T06:30:28;17.50;99.90
25991;DHT22;13779;-33.886;151.198;2023-08-17T06:32:58;17.50;99.90
25991;DHT22;13779;-33.886;151.198;2023-08-17T06:35:28;17.40;99.90
25991;DHT22;13779;-33.886;151.198;2023-08-17T06:37:58;17.40;99.90
25991;DHT22;13779;-33.886;151.198;2023-08-17T06:40:29;17.30;99.90
25991;DHT22;13779;-33.886;151.198;2023-08-17T06:42:59;17.30;99.90
25991;DHT22;13779;-33.886;151.198;2023-08-17T06:45:31;17.30;99.90
25991;DHT22;13779;-33.886;151.198;2023-08-17T06:48:01;17.30;99.90
25991;DHT22;13779;-33.886;151.198;2023-08-17T06:50:33;17.30;99.90
25991;DHT22;13779;-33.886;151.198;2023-08-17T06:53:04;17.20;99.90
25991;DHT22;13779;-33.886;151.198;2023-08-17T06:55:34;17.20;99.90
25991;DHT22;13779;-33.886;151.198;2023-08-17T06:58:04;17.20;99.90
25991;DHT22;13779;-33.886;151.198;2023-08-17T07:00:34;17.20;99.90
25991;DHT22;13779;-33.886;151.198;2023-08-17T07:03:04;17.10;99.90
25991;DHT22;13779;-33.886;151.198;2023-08-17T07:05:36;17.10;99.90
25991;DHT22;13779;-33.886;151.198;2023-08-17T07:08:06;17.10;99.90
25991;DHT22;13779;-33.886;151.198;2023-08-17T07:10:36;17.00;99.90
25991;DHT22;13779;-33.886;151.198;2023-08-17T07:13:06;17.00;99.90
25991;DHT22;13779;-33.886;151.198;2023-08-17T07:15:37;17.00;99.90
25991;DHT22;13779;-33.886;151.198;2023-08-17T07:18:07;16.90;99.90
25991;DHT22;13779;-33.886;151.198;2023-08-17T07:20:37;16.90;99.90
25991;DHT22;13779;-33.886;151.198;2023-08-17T07:23:07;16.90;99.90
25991;DHT22;13779;-33.886;151.198;2023-08-17T07:25:37;16.90;99.90
25991;DHT22;13779;-33.886;151.198;2023-08-17T07:28:07;16.80;99.90
25991;DHT22;13779;-33.886;151.198;2023-08-17T07:30:37;16.80;99.90
25991;DHT22;13779;-33.886;151.198;2023-08-17T07:33:08;16.80;99.90
25991;DHT22;13779;-33.886;151.198;2023-08-17T07:35:38;16.90;99.90
25991;DHT22;13779;-33.886;151.198;2023-08-17T07:38:08;16.80;99.90
25991;DHT22;13779;-33.886;151.198;2023-08-17T07:40:38;16.80;99.90
25991;DHT22;13779;-33.886;151.198;2023-08-17T07:43:08;16.80;99.90
25991;DHT22;13779;-33.886;151.198;2023-08-17T07:45:38;16.80;99.90
25991;DHT22;13779;-33.886;151.198;2023-08-17T07:48:08;16.80;99.90
25991;DHT22;13779;-33.886;151.198;2023-08-17T07:50:39;16.80;99.90
25991;DHT22;13779;-33.886;151.198;2023-08-17T07:53:09;16.80;99.90
25991;DHT22;13779;-33.886;151.198;2023-08-17T07:55:40;16.80;99.90
25991;DHT22;13779;-33.886;151.198;2023-08-17T07:58:14;16.80;99.90
25991;DHT22;13779;-33.886;151.198;2023-08-17T08:00:47;16.80;99.90
25991;DHT22;13779;-33.886;151.198;2023-08-17T08:03:18;16.80;99.90
25991;DHT22;13779;-33.886;151.198;2023-08-17T08:05:53;16.70;99.90
25991;DHT22;13779;-33.886;151.198;2023-08-17T08:08:23;16.60;99.90
25991;DHT22;13779;-33.886;151.198;2023-08-17T08:10:54;16.70;99.90
25991;DHT22;13779;-33.886;151.198;2023-08-17T08:13:25;16.70;99.90
25991;DHT22;13779;-33.886;151.198;2023-08-17T08:15:55;16.60;99.90
25991;DHT22;13779;-33.886;151.198;2023-08-17T08:18:26;16.60;99.90
25991;DHT22;13779;-33.886;151.198;2023-08-17T08:20:57;16.60;99.90
25991;DHT22;13779;-33.886;151.198;2023-08-17T08:23:27;16.70;99.90
25991;DHT22;13779;-33.886;151.198;2023-08-17T08:25:59;16.70;99.90
25991;DHT22;13779;-33.886;151.198;2023-08-17T08:28:30;16.80;99.90
25991;DHT22;13779;-33.886;151.198;2023-08-17T08:31:04;16.80;99.90
25991;DHT22;13779;-33.886;151.198;2023-08-17T08:33:38;16.80;99.90
25991;DHT22;13779;-33.886;151.198;2023-08-17T08:36:10;16.80;99.90
25991;DHT22;13779;-33.886;151.198;2023-08-17T08:38:40;16.80;99.90
25991;DHT22;13779;-33.886;151.198;2023-08-17T08:41:12;16.80;99.90
25991;DHT22;13779;-33.886;151.198;2023-08-17T08:43:43;16.80;99.90
25991;DHT22;13779;-33.886;151.198;2023-08-17T08:46:17;16.70;99.90
25991;DHT22;13779;-33.886;151.198;2023-08-17T08:48:51;16.70;99.90
25991;DHT22;13779;-33.886;151.198;2023-08-17T08:51:27;16.70;99.90
25991;DHT22;13779;-33.886;151.198;2023-08-17T08:54:01;16.80;99.90
25991;DHT22;13779;-33.886;151.198;2023-08-17T08:56:40;16.80;99.90
25991;DHT22;13779;-33.886;151.198;2023-08-17T08:59:15;16.80;99.90
25991;DHT22;13779;-33.886;151.198;2023-08-17T09:01:46;16.70;99.90
25991;DHT22;13779;-33.886;151.198;2023-08-17T09:04:19;16.70;99.90
25991;DHT22;13779;-33.886;151.198;2023-08-17T09:06:50;16.80;99.90
25991;DHT22;13779;-33.886;151.198;2023-08-17T09:09:21;16.80;99.90
25991;DHT22;13779;-33.886;151.198;2023-08-17T09:11:56;16.80;99.90
25991;DHT22;13779;-33.886;151.198;2023-08-17T09:14:26;16.80;99.90
25991;DHT22;13779;-33.886;151.198;2023-08-17T09:16:57;16.80;99.90
25991;DHT22;13779;-33.886;151.198;2023-08-17T09:19:28;16.80;99.90
25991;DHT22;13779;-33.886;151.198;2023-08-17T09:21:59;16.80;99.90
25991;DHT22;13779;-33.886;151.198;2023-08-17T09:24:37;16.80;99.90
25991;DHT22;13779;-33.886;151.198;2023-08-17T09:27:12;16.80;99.90
25991;DHT22;13779;-33.886;151.198;2023-08-17T09:29:46;16.80;99.90
25991;DHT22;13779;-33.886;151.198;2023-08-17T09:32:16;16.80;99.90
25991;DHT22;13779;-33.886;151.198;2023-08-17T09:34:47;16.80;99.90
25991;DHT22;13779;-33.886;151.198;2023-08-17T09:37:22;16.80;99.90
25991;DHT22;13779;-33.886;151.198;2023-08-17T09:39:53;16.80;99.90
25991;DHT22;13779;-33.886;151.198;2023-08-17T09:42:23;16.80;99.90
25991;DHT22;13779;-33.886;151.198;2023-08-17T09:44:57;16.80;99.90
25991;DHT22;13779;-33.886;151.198;2023-08-17T09:47:30;16.80;99.90
25991;DHT22;13779;-33.886;151.198;2023-08-17T09:50:00;16.80;99.90
25991;DHT22;13779;-33.886;151.198;2023-08-17T09:52:37;16.80;99.90
25991;DHT22;13779;-33.886;151.198;2023-08-17T09:55:08;16.80;99.90
25991;DHT22;13779;-33.886;151.198;2023-08-17T09:57:41;16.80;99.90
25991;DHT22;13779;-33.886;151.198;2023-08-17T10:00:11;16.80;99.90
25991;DHT22;13779;-33.886;151.198;2023-08-17T10:02:44;16.80;99.90
25991;DHT22;13779;-33.886;151.198;2023-08-17T10:05:21;16.90;99.90
25991;DHT22;13779;-33.886;151.198;2023-08-17T10:07:57;16.90;99.90
25991;DHT22;13779;-33.886;151.198;2023-08-17T10:10:31;16.80;99.90
25991;DHT22;13779;-33.886;151.198;2023-08-17T10:16:12;16.80;99.90
25991;DHT22;13779;-33.886;151.198;2023-08-17T10:22:06;16.80;99.90
25991;DHT22;13779;-33.886;151.198;2023-08-17T10:24:39;16.80;99.90
25991;DHT22;13779;-33.886;151.198;2023-08-17T10:27:14;16.80;99.90
25991;DHT22;13779;-33.886;151.198;2023-08-17T10:29:45;16.80;99.90
25991;DHT22;13779;-33.886;151.198;2023-08-17T10:32:17;16.90;99.90
25991;DHT22;13779;-33.886;151.198;2023-08-17T10:34:50;16.90;99.90
25991;DHT22;13779;-33.886;151.198;2023-08-17T10:37:22;16.80;99.90
25991;DHT22;13779;-33.886;151.198;2023-08-17T10:39:54;16.80;99.90
25991;DHT22;13779;-33.886;151.198;2023-08-17T10:45:28;16.80;99.90
25991;DHT22;13779;-33.886;151.198;2023-08-17T10:50:37;16.80;99.90
25991;DHT22;13779;-33.886;151.198;2023-08-17T10:53:14;16.80;99.90
25991;DHT22;13779;-33.886;151.198;2023-08-17T10:55:46;16.80;99.90
25991;DHT22;13779;-33.886;151.198;2023-08-17T10:58:21;16.80;99.90
25991;DHT22;13779;-33.886;151.198;2023-08-17T11:00:55;16.80;99.90
25991;DHT22;13779;-33.886;151.198;2023-08-17T11:03:26;16.80;99.90
25991;DHT22;13779;-33.886;151.198;2023-08-17T11:05:58;16.70;99.90
25991;DHT22;13779;-33.886;151.198;2023-08-17T11:08:54;16.70;99.90
25991;DHT22;13779;-33.886;151.198;2023-08-17T11:11:31;16.50;99.90
25991;DHT22;13779;-33.886;151.198;2023-08-17T11:14:01;16.40;99.90
25991;DHT22;13779;-33.886;151.198;2023-08-17T11:16:32;16.30;99.90
25991;DHT22;13779;-33.886;151.198;2023-08-17T11:19:02;16.30;99.90
25991;DHT22;13779;-33.886;151.198;2023-08-17T11:21:32;16.30;99.90
25991;DHT22;13779;-33.886;151.198;2023-08-17T11:24:03;16.20;99.90
25991;DHT22;13779;-33.886;151.198;2023-08-17T11:26:38;16.20;99.90
25991;DHT22;13779;-33.886;151.198;2023-08-17T11:29:19;16.10;99.90
25991;DHT22;13779;-33.886;151.198;2023-08-17T11:31:50;16.10;99.90
25991;DHT22;13779;-33.886;151.198;2023-08-17T11:34:20;16.20;99.90
25991;DHT22;13779;-33.886;151.198;2023-08-17T11:36:51;16.10;99.90
25991;DHT22;13779;-33.886;151.198;2023-08-17T11:39:21;16.00;99.90
25991;DHT22;13779;-33.886;151.198;2023-08-17T11:41:52;16.00;99.90
25991;DHT22;13779;-33.886;151.198;2023-08-17T11:44:23;15.90;99.90
25991;DHT22;13779;-33.886;151.198;2023-08-17T11:46:54;15.90;99.90
25991;DHT22;13779;-33.886;151.198;2023-08-17T11:49:24;15.80;99.90
25991;DHT22;13779;-33.886;151.198;2023-08-17T11:51:54;15.80;99.90
25991;DHT22;13779;-33.886;151.198;2023-08-17T11:54:24;15.70;99.90
25991;DHT22;13779;-33.886;151.198;2023-08-17T11:56:56;15.60;99.90
25991;DHT22;13779;-33.886;151.198;2023-08-17T11:59:31;15.60;99.90
25991;DHT22;13779;-33.886;151.198;2023-08-17T12:02:02;15.50;99.90
25991;DHT22;13779;-33.886;151.198;2023-08-17T12:04:35;15.40;99.90
25991;DHT22;13779;-33.886;151.198;2023-08-17T12:07:06;15.40;99.90
25991;DHT22;13779;-33.886;151.198;2023-08-17T12:09:47;15.30;99.90
25991;DHT22;13779;-33.886;151.198;2023-08-17T12:12:22;15.20;99.90
25991;DHT22;13779;-33.886;151.198;2023-08-17T12:15:01;15.10;99.90
25991;DHT22;13779;-33.886;151.198;2023-08-17T12:17:33;15.20;99.90
25991;DHT22;13779;-33.886;151.198;2023-08-17T12:20:04;15.20;99.90
25991;DHT22;13779;-33.886;151.198;2023-08-17T12:22:35;15.10;99.90
25991;DHT22;13779;-33.886;151.198;2023-08-17T12:25:09;15.10;99.90
25991;DHT22;13779;-33.886;151.198;2023-08-17T12:27:40;15.10;99.90
25991;DHT22;13779;-33.886;151.198;2023-08-17T12:30:27;15.00;99.90
25991;DHT22;13779;-33.886;151.198;2023-08-17T12:33:02;15.00;99.90
25991;DHT22;13779;-33.886;151.198;2023-08-17T12:35:33;14.90;99.90
25991;DHT22;13779;-33.886;151.198;2023-08-17T12:38:12;14.80;99.90
25991;DHT22;13779;-33.886;151.198;2023-08-17T12:40:45;14.80;99.90
25991;DHT22;13779;-33.886;151.198;2023-08-17T12:43:22;14.80;99.90
25991;DHT22;13779;-33.886;151.198;2023-08-17T12:45:56;14.70;99.90
25991;DHT22;13779;-33.886;151.198;2023-08-17T12:48:26;14.70;99.90
25991;DHT22;13779;-33.886;151.198;2023-08-17T12:51:03;14.70;99.90
25991;DHT22;13779;-33.886;151.198;2023-08-17T12:53:34;14.70;99.90
25991;DHT22;13779;-33.886;151.198;2023-08-17T12:56:04;14.70;99.90
25991;DHT22;13779;-33.886;151.198;2023-08-17T12:58:35;14.70;99.90
25991;DHT22;13779;-33.886;151.198;2023-08-17T13:01:06;14.70;99.90
25991;DHT22;13779;-33.886;151.198;2023-08-17T13:03:36;14.70;99.90
25991;DHT22;13779;-33.886;151.198;2023-08-17T13:06:08;14.60;99.90
25991;DHT22;13779;-33.886;151.198;2023-08-17T13:08:38;14.50;99.90
25991;DHT22;13779;-33.886;151.198;2023-08-17T13:11:10;14.60;99.90
25991;DHT22;13779;-33.886;151.198;2023-08-17T13:13:44;14.60;99.90
25991;DHT22;13779;-33.886;151.198;2023-08-17T13:16:14;14.50;99.90
25991;DHT22;13779;-33.886;151.198;2023-08-17T13:18:47;14.50;99.90
25991;DHT22;13779;-33.886;151.198;2023-08-17T13:21:18;14.50;99.90
25991;DHT22;13779;-33.886;151.198;2023-08-17T13:23:50;14.50;99.90
25991;DHT22;13779;-33.886;151.198;2023-08-17T13:26:22;14.40;99.90
25991;DHT22;13779;-33.886;151.198;2023-08-17T13:28:53;14.30;99.90
25991;DHT22;13779;-33.886;151.198;2023-08-17T13:31:30;14.30;99.90
25991;DHT22;13779;-33.886;151.198;2023-08-17T13:34:01;14.20;99.90
25991;DHT22;13779;-33.886;151.198;2023-08-17T13:36:32;14.20;99.90
25991;DHT22;13779;-33.886;151.198;2023-08-17T13:39:06;14.30;99.90
25991;DHT22;13779;-33.886;151.198;2023-08-17T13:41:40;14.20;99.90
25991;DHT22;13779;-33.886;151.198;2023-08-17T13:44:10;14.10;99.90
25991;DHT22;13779;-33.886;151.198;2023-08-17T13:46:41;14.20;99.90
25991;DHT22;13779;-33.886;151.198;2023-08-17T13:49:15;14.20;99.90
25991;DHT22;13779;-33.886;151.198;2023-08-17T13:51:46;14.10;99.90
25991;DHT22;13779;-33.886;151.198;2023-08-17T13:54:16;14.00;99.90
25991;DHT22;13779;-33.886;151.198;2023-08-17T13:56:47;13.90;99.90
25991;DHT22;13779;-33.886;151.198;2023-08-17T13:59:17;13.90;99.90
25991;DHT22;13779;-33.886;151.198;2023-08-17T14:01:48;13.90;99.90
25991;DHT22;13779;-33.886;151.198;2023-08-17T14:04:19;13.80;99.90
25991;DHT22;13779;-33.886;151.198;2023-08-17T14:06:50;13.70;99.90
25991;DHT22;13779;-33.886;151.198;2023-08-17T14:09:22;13.70;99.90
25991;DHT22;13779;-33.886;151.198;2023-08-17T14:11:52;13.70;99.90
25991;DHT22;13779;-33.886;151.198;2023-08-17T14:14:23;13.80;99.90
25991;DHT22;13779;-33.886;151.198;2023-08-17T14:16:57;13.90;99.90
25991;DHT22;13779;-33.886;151.198;2023-08-17T14:19:34;13.90;99.90
25991;DHT22;13779;-33.886;151.198;2023-08-17T14:22:04;13.90;99.90
25991;DHT22;13779;-33.886;151.198;2023-08-17T14:24:38;13.90;99.90
25991;DHT22;13779;-33.886;151.198;2023-08-17T14:27:09;14.00;99.90
25991;DHT22;13779;-33.886;151.198;2023-08-17T14:29:42;14.00;99.90
25991;DHT22;13779;-33.886;151.198;2023-08-17T14:32:15;14.10;99.90
25991;DHT22;13779;-33.886;151.198;2023-08-17T14:34:52;14.10;99.90
25991;DHT22;13779;-33.886;151.198;2023-08-17T14:37:22;14.10;99.90
25991;DHT22;13779;-33.886;151.198;2023-08-17T14:39:53;14.10;99.90
25991;DHT22;13779;-33.886;151.198;2023-08-17T14:42:23;14.10;99.90
25991;DHT22;13779;-33.886;151.198;2023-08-17T14:44:55;14.00;99.90
25991;DHT22;13779;-33.886;151.198;2023-08-17T14:47:26;14.00;99.90
25991;DHT22;13779;-33.886;151.198;2023-08-17T14:49:57;14.00;99.90
25991;DHT22;13779;-33.886;151.198;2023-08-17T14:52:30;14.00;99.90
25991;DHT22;13779;-33.886;151.198;2023-08-17T14:55:02;13.90;99.90
25991;DHT22;13779;-33.886;151.198;2023-08-17T14:57:36;13.90;99.90
25991;DHT22;13779;-33.886;151.198;2023-08-17T15:00:09;13.90;99.90
25991;DHT22;13779;-33.886;151.198;2023-08-17T15:02:43;13.90;99.90
25991;DHT22;13779;-33.886;151.198;2023-08-17T15:05:27;13.80;99.90
25991;DHT22;13779;-33.886;151.198;2023-08-17T15:07:58;13.80;99.90
25991;DHT22;13779;-33.886;151.198;2023-08-17T15:10:32;13.80;99.90
25991;DHT22;13779;-33.886;151.198;2023-08-17T15:13:04;13.70;99.90
25991;DHT22;13779;-33.886;151.198;2023-08-17T15:15:38;13.80;99.90
25991;DHT22;13779;-33.886;151.198;2023-08-17T15:18:09;13.80;99.90
25991;DHT22;13779;-33.886;151.198;2023-08-17T15:20:40;13.90;99.90
25991;DHT22;13779;-33.886;151.198;2023-08-17T15:23:10;13.90;99.90
25991;DHT22;13779;-33.886;151.198;2023-08-17T15:25:46;14.00;99.90
25991;DHT22;13779;-33.886;151.198;2023-08-17T15:28:16;13.90;99.90
25991;DHT22;13779;-33.886;151.198;2023-08-17T15:30:59;13.90;99.90
25991;DHT22;13779;-33.886;151.198;2023-08-17T15:33:31;13.90;99.90
25991;DHT22;13779;-33.886;151.198;2023-08-17T15:36:02;13.90;99.90